Time;durP1;ratioP1;P1;durP2;ratioP2;P2;SDS_P1;SDS_P2;PMS_P1;PMS_P2;Temp;Humidity;BMP_temperature;BMP_pressure;BME280_temperature;BME280_humidity;BME280_pressure;Samples;Min_cycle;Max_cycle;Signal;HPM_P1;HPM_P2
2021/06/09 00:00:54;;;;;;;20.50;18.60;;;17.90;99.90;;;;;;4996312;28;20645;-67
2021/06/09 00:03:21;;;;;;;19.27;17.23;;;17.90;99.90;;;;;;4995986;28;20603;-67
2021/06/09 00:06:06;;;;;;;20.13;17.73;;;17.90;99.90;;;;;;4996004;28;20609;-66
2021/06/09 00:08:32;;;;;;;22.67;20.47;;;17.90;99.90;;;;;;4995798;28;21012;-66
2021/06/09 00:10:59;;;;;;;22.17;19.97;;;17.90;99.90;;;;;;4995863;28;20571;-67
2021/06/09 00:13:30;;;;;;;22.13;20.07;;;17.70;99.90;;;;;;4995795;28;20934;-67
2021/06/09 00:16:02;;;;;;;19.70;17.70;;;17.80;99.90;;;;;;4995692;28;20655;-67
2021/06/09 00:18:29;;;;;;;20.80;18.60;;;17.70;99.90;;;;;;4995954;28;20610;-66
2021/06/09 00:20:55;;;;;;;21.13;19.20;;;17.80;99.90;;;;;;4995710;28;20576;-66
2021/06/09 00:23:26;;;;;;;20.83;18.87;;;17.70;99.90;;;;;;4994751;28;20600;-66
2021/06/09 00:25:54;;;;;;;23.07;20.80;;;17.70;99.90;;;;;;4996028;28;20590;-66
2021/06/09 00:28:20;;;;;;;23.70;20.20;;;17.60;99.90;;;;;;4995189;28;20625;-66
2021/06/09 00:30:48;;;;;;;21.03;18.93;;;17.70;99.90;;;;;;4995716;28;20960;-66
2021/06/09 00:33:14;;;;;;;23.87;21.10;;;17.70;99.90;;;;;;4995407;28;20648;-66
2021/06/09 00:35:41;;;;;;;21.73;19.63;;;17.70;99.90;;;;;;4995472;28;21165;-66
2021/06/09 00:38:08;;;;;;;22.57;19.87;;;17.70;99.90;;;;;;4995382;28;20660;-66
2021/06/09 00:40:35;;;;;;;21.33;19.23;;;17.70;99.90;;;;;;4995425;28;21188;-66
2021/06/09 00:43:14;;;;;;;20.47;18.67;;;17.70;99.90;;;;;;4995262;28;20598;-66
2021/06/09 00:45:52;;;;;;;22.10;20.10;;;17.70;99.90;;;;;;4994861;28;21019;-66
2021/06/09 00:48:24;;;;;;;20.47;18.50;;;17.70;99.90;;;;;;4995294;28;20589;-66
2021/06/09 00:50:52;;;;;;;21.57;19.30;;;17.70;99.90;;;;;;4994934;28;20673;-66
2021/06/09 00:53:28;;;;;;;22.03;19.80;;;17.70;99.90;;;;;;4995440;28;20618;-66
2021/06/09 00:55:57;;;;;;;22.33;20.03;;;17.70;99.90;;;;;;4995054;28;20709;-66
2021/06/09 00:58:24;;;;;;;22.50;20.17;;;17.80;99.90;;;;;;4995214;28;20733;-66
2021/06/09 01:00:51;;;;;;;21.80;19.80;;;17.80;99.90;;;;;;4995027;28;20609;-66
2021/06/09 01:03:18;;;;;;;21.67;18.43;;;17.70;99.90;;;;;;4993436;28;20634;-64
2021/06/09 01:05:45;;;;;;;21.37;19.30;;;17.80;99.90;;;;;;4994774;28;20606;-66
2021/06/09 01:08:13;;;;;;;20.90;19.00;;;17.80;99.90;;;;;;4994824;28;20625;-66
2021/06/09 01:10:39;;;;;;;21.57;19.57;;;17.70;99.90;;;;;;4993717;28;20713;-66
2021/06/09 01:13:06;;;;;;;20.40;18.40;;;17.70;99.90;;;;;;4994532;28;20605;-66
2021/06/09 01:15:34;;;;;;;20.00;18.00;;;17.70;99.90;;;;;;4994626;28;21136;-66
2021/06/09 01:18:00;;;;;;;21.07;19.07;;;17.70;99.90;;;;;;4994539;28;20668;-66
2021/06/09 01:20:27;;;;;;;21.90;19.80;;;17.60;99.90;;;;;;4993413;28;20594;-66
2021/06/09 01:22:54;;;;;;;19.47;17.50;;;17.60;99.90;;;;;;4994528;28;20618;-66
2021/06/09 01:25:22;;;;;;;21.20;18.97;;;17.50;99.90;;;;;;4994407;28;20601;-66
2021/06/09 01:27:50;;;;;;;20.20;18.23;;;17.50;99.90;;;;;;4994466;28;20621;-66
2021/06/09 01:30:18;;;;;;;20.47;18.67;;;17.50;99.90;;;;;;4994680;28;20709;-66
2021/06/09 01:32:45;;;;;;;20.73;18.73;;;17.50;99.90;;;;;;4993082;28;20604;-66
2021/06/09 01:35:12;;;;;;;21.67;19.70;;;17.40;99.90;;;;;;4994128;28;20920;-66
2021/06/09 01:37:39;;;;;;;21.47;19.37;;;17.40;99.90;;;;;;4994286;28;20640;-66
2021/06/09 01:40:14;;;;;;;22.40;20.23;;;17.30;99.90;;;;;;4994337;28;20700;-66
2021/06/09 01:42:41;;;;;;;22.53;20.23;;;17.40;99.90;;;;;;4994216;28;20717;-66
2021/06/09 01:45:12;;;;;;;21.70;19.57;;;17.40;99.90;;;;;;4993800;28;20653;-66
2021/06/09 01:47:38;;;;;;;21.77;19.50;;;17.40;99.90;;;;;;4994262;28;20567;-66
2021/06/09 01:50:08;;;;;;;21.70;19.60;;;17.40;99.90;;;;;;4994243;28;21200;-68
2021/06/09 01:52:35;;;;;;;24.20;21.70;;;17.40;99.90;;;;;;4994076;28;20613;-66
2021/06/09 01:55:02;;;;;;;25.33;20.57;;;17.30;99.90;;;;;;4994118;28;20954;-66
2021/06/09 01:57:28;;;;;;;21.50;19.40;;;17.40;99.90;;;;;;4994252;28;20628;-66
2021/06/09 01:59:55;;;;;;;22.57;20.37;;;17.30;99.90;;;;;;4993729;28;20633;-66
2021/06/09 02:02:22;;;;;;;21.73;19.53;;;17.30;99.90;;;;;;4993863;28;20602;-66
2021/06/09 02:04:48;;;;;;;21.27;19.20;;;17.30;99.90;;;;;;4993755;28;20979;-66
2021/06/09 02:07:14;;;;;;;21.47;19.27;;;17.30;99.90;;;;;;4993701;28;21157;-66
2021/06/09 02:09:41;;;;;;;22.80;20.63;;;17.20;99.90;;;;;;4993820;28;20677;-66
2021/06/09 02:12:08;;;;;;;22.43;20.03;;;17.30;99.90;;;;;;4993780;28;20629;-66
2021/06/09 02:14:36;;;;;;;23.37;21.07;;;17.20;99.90;;;;;;4993752;28;20590;-66
2021/06/09 02:17:05;;;;;;;21.03;18.93;;;17.20;99.90;;;;;;4993578;28;20598;-66
2021/06/09 02:19:32;;;;;;;20.70;18.90;;;17.30;99.90;;;;;;4993736;28;20955;-66
2021/06/09 02:21:59;;;;;;;23.73;20.30;;;17.30;99.90;;;;;;4995797;28;20999;-66
2021/06/09 02:24:27;;;;;;;23.27;21.00;;;17.30;99.90;;;;;;4997707;28;20601;-66
2021/06/09 02:26:54;;;;;;;21.13;19.03;;;17.20;99.90;;;;;;4997977;28;20620;-66
2021/06/09 02:29:21;;;;;;;23.63;21.43;;;17.20;99.90;;;;;;4997451;28;20626;-66
2021/06/09 02:31:49;;;;;;;23.00;20.20;;;17.10;99.90;;;;;;4997641;28;20604;-66
2021/06/09 02:34:24;;;;;;;23.17;21.03;;;17.10;99.90;;;;;;4997482;28;20600;-66
2021/06/09 02:36:52;;;;;;;23.47;21.07;;;17.00;99.90;;;;;;4997778;28;20959;-66
2021/06/09 02:39:20;;;;;;;23.90;21.27;;;17.10;99.90;;;;;;4997149;28;21211;-66
2021/06/09 02:41:48;;;;;;;23.10;20.90;;;17.10;99.90;;;;;;4997332;28;20651;-66
2021/06/09 02:44:15;;;;;;;24.77;22.23;;;17.10;99.90;;;;;;4997037;28;21196;-66
2021/06/09 02:46:55;;;;;;;22.63;20.43;;;17.00;99.90;;;;;;4997097;28;20644;-66
2021/06/09 02:49:24;;;;;;;23.30;20.90;;;17.10;99.90;;;;;;4997167;28;20645;-66
2021/06/09 02:52:19;;;;;;;24.17;20.40;;;17.00;99.90;;;;;;4997007;28;20970;-66
2021/06/09 02:55:08;;;;;;;24.47;21.87;;;17.00;99.90;;;;;;4982479;28;20641;-67
2021/06/09 02:57:47;;;;;;;22.93;20.53;;;17.00;99.90;;;;;;4997093;28;20600;-66
2021/06/09 03:00:28;;;;;;;23.13;20.67;;;17.10;99.90;;;;;;4996950;28;20585;-66
2021/06/09 03:03:20;;;;;;;21.53;19.40;;;17.10;99.90;;;;;;4996247;28;20632;-66
2021/06/09 03:06:04;;;;;;;24.40;22.00;;;17.10;99.90;;;;;;4996374;28;20628;-66
2021/06/09 03:08:41;;;;;;;22.30;19.90;;;17.10;99.90;;;;;;4996214;28;20871;-66
2021/06/09 03:11:28;;;;;;;21.73;19.53;;;17.10;99.90;;;;;;4996655;28;20588;-66
2021/06/09 03:14:17;;;;;;;26.10;20.67;;;17.00;99.90;;;;;;4984829;28;20618;-66
2021/06/09 03:16:53;;;;;;;22.67;20.37;;;17.00;99.90;;;;;;4996716;28;20972;-66
2021/06/09 03:19:24;;;;;;;21.70;19.50;;;17.00;99.90;;;;;;4995202;28;20667;-67
2021/06/09 03:21:56;;;;;;;22.47;20.17;;;17.10;99.90;;;;;;4996650;28;20936;-66
2021/06/09 03:24:38;;;;;;;21.60;19.60;;;17.10;99.90;;;;;;4996714;28;20592;-66
2021/06/09 03:27:15;;;;;;;23.27;20.83;;;17.10;99.90;;;;;;4996804;28;20629;-66
2021/06/09 03:29:47;;;;;;;25.27;20.50;;;17.00;99.90;;;;;;4996373;28;20612;-66
2021/06/09 03:32:46;;;;;;;23.97;21.67;;;17.00;99.90;;;;;;4996462;28;20703;-66
2021/06/09 03:35:22;;;;;;;22.90;20.60;;;17.00;99.90;;;;;;4975907;28;21007;-66
2021/06/09 03:37:53;;;;;;;22.20;19.97;;;17.00;99.90;;;;;;4996150;28;20614;-66
2021/06/09 03:40:28;;;;;;;23.07;20.63;;;16.90;99.90;;;;;;4996407;28;20638;-66
2021/06/09 03:42:59;;;;;;;28.30;21.87;;;16.90;99.90;;;;;;4996285;28;20915;-66
2021/06/09 03:45:32;;;;;;;25.93;23.23;;;16.90;99.90;;;;;;4995906;28;20641;-66
2021/06/09 03:48:00;;;;;;;22.60;20.37;;;16.90;99.90;;;;;;4996190;28;20589;-65
2021/06/09 03:50:29;;;;;;;21.80;19.77;;;16.90;99.90;;;;;;4996100;28;20610;-65
2021/06/09 03:53:02;;;;;;;26.93;21.53;;;16.90;99.90;;;;;;4996045;28;20601;-65
2021/06/09 03:55:33;;;;;;;24.83;21.80;;;16.80;99.90;;;;;;4996192;28;20634;-66
2021/06/09 03:58:00;;;;;;;23.77;21.50;;;16.80;99.90;;;;;;4995903;28;20641;-65
2021/06/09 04:00:29;;;;;;;25.10;22.77;;;16.70;99.90;;;;;;4996071;28;20600;-68
2021/06/09 04:02:56;;;;;;;25.67;22.97;;;16.70;99.90;;;;;;4996337;28;20685;-66
2021/06/09 04:05:26;;;;;;;26.20;23.50;;;16.70;99.90;;;;;;4996277;28;20626;-65
2021/06/09 04:07:57;;;;;;;28.63;25.93;;;16.70;99.90;;;;;;4996146;28;20976;-66
2021/06/09 04:10:24;;;;;;;29.43;25.23;;;16.70;99.90;;;;;;4994786;28;20647;-66
2021/06/09 04:12:51;;;;;;;24.87;22.33;;;16.70;99.90;;;;;;4995791;28;21162;-66
2021/06/09 04:15:20;;;;;;;25.23;22.73;;;16.80;99.90;;;;;;4996314;28;20649;-66
2021/06/09 04:17:49;;;;;;;25.90;23.40;;;16.70;99.90;;;;;;4995683;28;20597;-66
2021/06/09 04:20:23;;;;;;;24.27;21.83;;;16.70;99.90;;;;;;4995655;28;20689;-66
2021/06/09 04:22:50;;;;;;;23.03;20.73;;;16.60;99.90;;;;;;4994248;28;20632;-66
2021/06/09 04:25:16;;;;;;;22.87;20.57;;;16.60;99.90;;;;;;4995727;28;20618;-66
2021/06/09 04:27:44;;;;;;;23.00;20.60;;;16.60;99.90;;;;;;4995681;28;20594;-66
2021/06/09 04:30:11;;;;;;;24.00;20.50;;;16.60;99.90;;;;;;4993981;28;20628;-66
2021/06/09 04:32:58;;;;;;;23.40;21.07;;;16.60;99.90;;;;;;4995325;28;20613;-66
2021/06/09 04:35:35;;;;;;;23.90;21.60;;;16.60;99.90;;;;;;4995518;28;21123;-66
2021/06/09 04:38:01;;;;;;;23.20;20.30;;;16.60;99.90;;;;;;4995477;28;20658;-66
2021/06/09 04:40:28;;;;;;;24.97;22.47;;;16.70;99.90;;;;;;4993972;28;20646;-66
2021/06/09 04:42:56;;;;;;;24.00;21.73;;;16.70;99.90;;;;;;4995134;28;20688;-65
2021/06/09 04:45:27;;;;;;;22.13;20.00;;;16.80;99.90;;;;;;4994136;28;20649;-65
2021/06/09 04:47:54;;;;;;;25.17;21.67;;;16.90;99.90;;;;;;4995242;28;20598;-65
2021/06/09 04:50:23;;;;;;;24.33;21.83;;;17.00;99.90;;;;;;4995340;28;20571;-65
2021/06/09 04:52:50;;;;;;;23.00;20.70;;;17.20;99.90;;;;;;4995038;28;21003;-65
2021/06/09 04:55:18;;;;;;;22.03;20.03;;;17.30;99.90;;;;;;4995266;28;20598;-65
2021/06/09 04:57:45;;;;;;;22.03;19.83;;;17.40;99.90;;;;;;4994874;28;20594;-65
2021/06/09 05:00:15;;;;;;;21.03;19.03;;;17.50;99.90;;;;;;4995164;28;20628;-65
2021/06/09 05:02:42;;;;;;;21.93;19.63;;;17.50;99.90;;;;;;4993592;28;20593;-65
2021/06/09 05:05:09;;;;;;;21.27;19.00;;;17.70;99.90;;;;;;4995072;28;21144;-65
2021/06/09 05:07:35;;;;;;;20.53;18.20;;;17.90;99.90;;;;;;4994904;28;20602;-65
2021/06/09 05:10:02;;;;;;;23.13;19.00;;;18.20;99.90;;;;;;4994861;28;20598;-65
2021/06/09 05:12:33;;;;;;;19.20;17.40;;;18.30;99.90;;;;;;4994733;28;20601;-65
2021/06/09 05:15:06;;;;;;;19.27;17.67;;;18.50;99.90;;;;;;4994715;28;21176;-65
2021/06/09 05:17:44;;;;;;;18.03;16.33;;;18.60;99.90;;;;;;4995182;28;21105;-65
2021/06/09 05:20:21;;;;;;;19.27;17.50;;;18.80;99.90;;;;;;4994175;28;20621;-65
2021/06/09 05:23:14;;;;;;;19.33;17.63;;;19.10;99.90;;;;;;4994293;28;20622;-65
2021/06/09 05:25:42;;;;;;;18.17;16.43;;;19.00;99.90;;;;;;4988510;28;20630;-65
2021/06/09 05:28:12;;;;;;;21.20;17.37;;;19.00;99.90;;;;;;4994556;28;20609;-66
2021/06/09 05:30:40;;;;;;;19.50;17.50;;;19.10;99.90;;;;;;4993344;28;20609;-66
2021/06/09 05:33:08;;;;;;;16.23;14.73;;;19.30;99.90;;;;;;4994546;28;20586;-66
2021/06/09 05:35:35;;;;;;;18.30;16.80;;;19.40;99.90;;;;;;4994349;28;20622;-67
2021/06/09 05:38:03;;;;;;;16.80;15.20;;;19.50;99.90;;;;;;4994395;28;20590;-66
2021/06/09 05:40:30;;;;;;;17.57;15.87;;;19.50;99.90;;;;;;4994501;28;20613;-66
2021/06/09 05:42:57;;;;;;;18.63;16.93;;;19.50;99.90;;;;;;4993870;28;20622;-66
2021/06/09 05:45:32;;;;;;;16.60;15.10;;;19.60;99.90;;;;;;4987858;28;20642;-66
2021/06/09 05:47:59;;;;;;;19.23;17.07;;;19.70;99.90;;;;;;4986958;28;20641;-66
2021/06/09 05:50:28;;;;;;;17.00;14.80;;;19.70;99.90;;;;;;4994095;28;20644;-66
2021/06/09 05:52:57;;;;;;;19.80;16.13;;;19.80;99.90;;;;;;4993879;28;21231;-66
2021/06/09 05:55:27;;;;;;;17.27;15.53;;;19.80;99.90;;;;;;4994501;28;20594;-67
2021/06/09 05:57:55;;;;;;;17.83;16.23;;;19.90;99.90;;;;;;4993976;28;20567;-66
2021/06/09 06:00:25;;;;;;;18.73;16.83;;;20.00;99.90;;;;;;4993967;28;21112;-66
2021/06/09 06:02:52;;;;;;;17.27;15.67;;;20.00;99.90;;;;;;4993892;28;20716;-66
2021/06/09 06:05:20;;;;;;;15.97;14.53;;;20.00;99.90;;;;;;4989286;28;20622;-66
2021/06/09 06:07:47;;;;;;;23.83;17.27;;;20.10;99.90;;;;;;4994153;28;20621;-67
2021/06/09 06:10:14;;;;;;;17.70;15.90;;;20.20;99.90;;;;;;4982249;28;21296;-66
2021/06/09 06:12:42;;;;;;;16.23;14.73;;;20.20;99.90;;;;;;4993487;28;20205;-66
2021/06/09 06:15:13;;;;;;;17.00;15.40;;;20.20;99.90;;;;;;4984128;28;20629;-66
2021/06/09 06:17:41;;;;;;;16.43;15.03;;;20.10;99.90;;;;;;4993383;28;20634;-66
2021/06/09 06:20:19;;;;;;;17.40;15.80;;;20.20;99.90;;;;;;4993534;28;21231;-66
2021/06/09 06:22:48;;;;;;;16.70;15.20;;;20.40;99.90;;;;;;4993795;28;20622;-66
2021/06/09 06:25:17;;;;;;;16.73;15.20;;;20.50;99.90;;;;;;4994211;28;20708;-66
2021/06/09 06:27:48;;;;;;;18.00;16.30;;;20.50;99.90;;;;;;4993814;28;20622;-66
2021/06/09 06:30:16;;;;;;;18.60;16.90;;;20.60;99.90;;;;;;4993507;28;20638;-66
2021/06/09 06:32:44;;;;;;;20.03;16.90;;;20.50;99.90;;;;;;4993525;28;20621;-66
2021/06/09 06:35:14;;;;;;;18.20;16.47;;;20.60;99.90;;;;;;4993535;28;20633;-66
2021/06/09 06:37:42;;;;;;;19.57;17.77;;;20.70;99.90;;;;;;4993647;28;21036;-68
2021/06/09 06:40:09;;;;;;;19.83;18.13;;;20.70;99.90;;;;;;4994090;28;20669;-66
2021/06/09 06:42:37;;;;;;;21.33;17.30;;;20.70;99.90;;;;;;4994104;28;21149;-66
2021/06/09 06:45:04;;;;;;;19.20;17.50;;;20.60;99.90;;;;;;4993482;28;20752;-66
2021/06/09 06:47:31;;;;;;;21.40;19.20;;;20.70;99.90;;;;;;4993883;28;20633;-66
2021/06/09 06:49:58;;;;;;;21.73;19.63;;;20.60;99.90;;;;;;4993713;28;20608;-66
2021/06/09 06:52:29;;;;;;;22.70;19.33;;;20.70;99.90;;;;;;4993841;28;20598;-66
2021/06/09 06:55:04;;;;;;;19.27;17.57;;;20.80;99.90;;;;;;4993731;28;21210;-66
2021/06/09 06:57:34;;;;;;;21.90;20.00;;;21.00;99.90;;;;;;4993708;28;20627;-66
2021/06/09 07:00:04;;;;;;;19.80;17.80;;;21.00;99.90;;;;;;4993854;28;20657;-66
2021/06/09 07:02:32;;;;;;;20.83;18.93;;;21.20;99.90;;;;;;4993572;28;20618;-66
2021/06/09 07:04:59;;;;;;;21.47;19.63;;;21.20;99.90;;;;;;4993651;28;21136;-66
2021/06/09 07:07:25;;;;;;;22.23;19.90;;;21.50;99.90;;;;;;4993493;28;20594;-66
2021/06/09 07:09:52;;;;;;;21.90;19.90;;;21.50;99.90;;;;;;4996740;28;20605;-66
2021/06/09 07:12:19;;;;;;;24.30;21.77;;;21.70;99.90;;;;;;4996961;28;20605;-66
2021/06/09 07:14:46;;;;;;;23.47;21.10;;;21.50;99.90;;;;;;4996968;28;20593;-66
2021/06/09 07:17:14;;;;;;;21.90;19.83;;;21.20;99.90;;;;;;4997056;28;20622;-66
2021/06/09 07:19:42;;;;;;;20.87;18.70;;;21.40;99.90;;;;;;4997159;28;20633;-66
2021/06/09 07:22:08;;;;;;;24.20;21.60;;;21.70;99.90;;;;;;4996693;28;20623;-66
2021/06/09 07:24:36;;;;;;;22.50;20.10;;;21.80;99.90;;;;;;4996997;28;20622;-66
2021/06/09 07:27:03;;;;;;;21.27;19.27;;;21.70;99.90;;;;;;4996775;28;21003;-66
2021/06/09 07:29:31;;;;;;;22.57;20.33;;;22.00;99.90;;;;;;4996819;28;20634;-66
2021/06/09 07:32:03;;;;;;;23.13;20.70;;;22.30;99.90;;;;;;4996978;28;20622;-66
2021/06/09 07:34:29;;;;;;;21.13;19.20;;;22.30;99.90;;;;;;4996719;28;20559;-66
2021/06/09 07:37:00;;;;;;;21.53;19.53;;;22.30;99.90;;;;;;4996683;28;20597;-66
2021/06/09 07:39:41;;;;;;;21.87;19.77;;;22.20;99.90;;;;;;4996791;28;20594;-66
2021/06/09 07:42:14;;;;;;;20.40;18.60;;;22.50;99.90;;;;;;4996720;28;21191;-67
2021/06/09 07:44:48;;;;;;;22.40;20.30;;;22.60;99.90;;;;;;4996778;28;20645;-66
2021/06/09 07:47:16;;;;;;;21.53;19.53;;;22.40;99.90;;;;;;4996710;28;20904;-66
2021/06/09 07:49:46;;;;;;;21.10;19.30;;;22.40;99.90;;;;;;4996407;28;21148;-66
2021/06/09 07:52:14;;;;;;;22.13;19.93;;;22.50;99.90;;;;;;4996378;28;20632;-66
2021/06/09 07:54:41;;;;;;;21.87;19.77;;;22.30;99.90;;;;;;4996602;28;20598;-66
2021/06/09 07:57:10;;;;;;;21.73;19.60;;;22.60;99.90;;;;;;4996102;28;21163;-66
2021/06/09 07:59:38;;;;;;;21.30;19.40;;;22.80;99.90;;;;;;4996542;28;21007;-66
2021/06/09 08:02:05;;;;;;;20.27;18.50;;;23.00;99.90;;;;;;4996164;28;20609;-67
2021/06/09 08:04:31;;;;;;;20.87;18.97;;;23.00;99.90;;;;;;4996151;28;20606;-66
2021/06/09 08:06:59;;;;;;;20.80;18.80;;;23.20;99.90;;;;;;4996140;28;20598;-66
2021/06/09 08:09:25;;;;;;;21.70;19.80;;;23.10;99.90;;;;;;4996109;28;20660;-66
2021/06/09 08:11:53;;;;;;;21.10;19.10;;;23.40;99.90;;;;;;4996600;28;20625;-66
2021/06/09 08:14:21;;;;;;;20.27;18.57;;;23.20;99.90;;;;;;4996052;28;20729;-66
2021/06/09 08:16:48;;;;;;;22.30;20.30;;;23.20;99.90;;;;;;4994538;28;20624;-66
2021/06/09 08:19:14;;;;;;;20.57;18.70;;;23.10;99.90;;;;;;4995392;28;21303;-66
2021/06/09 08:21:41;;;;;;;20.30;18.57;;;23.20;99.90;;;;;;4995888;28;20921;-66
2021/06/09 08:24:10;;;;;;;22.30;20.10;;;23.20;99.90;;;;;;4995885;28;20687;-66
2021/06/09 08:26:37;;;;;;;22.17;20.10;;;23.00;99.90;;;;;;4995728;28;20625;-66
2021/06/09 08:29:05;;;;;;;22.63;20.53;;;23.30;99.90;;;;;;4995811;28;20608;-66
2021/06/09 08:31:33;;;;;;;22.60;20.60;;;23.40;99.90;;;;;;4995789;28;20628;-66
2021/06/09 08:34:01;;;;;;;21.60;19.43;;;23.50;99.90;;;;;;4995662;28;20610;-66
2021/06/09 08:36:28;;;;;;;20.17;18.30;;;23.70;99.90;;;;;;4995531;28;20600;-66
2021/06/09 08:38:56;;;;;;;18.63;16.70;;;23.90;99.90;;;;;;4995595;28;20662;-67
2021/06/09 08:41:32;;;;;;;19.40;16.70;;;24.10;99.90;;;;;;4994942;28;20676;-66
2021/06/09 08:44:00;;;;;;;18.50;16.90;;;24.20;90.30;;;;;;4995097;28;20692;-66
2021/06/09 08:46:28;;;;;;;19.00;17.10;;;24.30;87.40;;;;;;4995382;28;20594;-66
2021/06/09 08:48:56;;;;;;;19.27;17.47;;;24.40;35.70;;;;;;4995130;28;20641;-66
2021/06/09 08:51:23;;;;;;;21.53;17.63;;;24.30;82.70;;;;;;4994934;28;20630;-66
2021/06/09 08:53:51;;;;;;;18.67;16.77;;;24.60;21.60;;;;;;4995268;28;20633;-66
2021/06/09 08:56:20;;;;;;;20.80;18.60;;;24.60;54.60;;;;;;4995327;28;20622;-66
2021/06/09 08:58:47;;;;;;;21.40;19.13;;;24.70;28.60;;;;;;4995131;28;20648;-66
2021/06/09 09:01:15;;;;;;;20.07;17.93;;;24.80;13.40;;;;;;4995131;28;20638;-66
2021/06/09 09:03:47;;;;;;;19.03;17.37;;;24.70;47.00;;;;;;4994689;28;20987;-66
2021/06/09 09:06:14;;;;;;;20.03;18.13;;;24.80;7.70;;;;;;4994733;28;20621;-66
2021/06/09 09:08:41;;;;;;;17.93;16.43;;;24.30;45.80;;;;;;4995056;28;20952;-67
2021/06/09 09:11:08;;;;;;;20.50;18.63;;;24.30;55.40;;;;;;4995417;28;20598;-66
2021/06/09 09:13:35;;;;;;;19.20;17.60;;;24.40;37.40;;;;;;4994924;28;20605;-67
2021/06/09 09:16:01;;;;;;;20.23;18.20;;;24.90;9.10;;;;;;4993638;28;20621;-66
2021/06/09 09:18:45;;;;;;;20.30;18.40;;;24.90;18.60;;;;;;4995093;28;21186;-66
2021/06/09 09:21:14;;;;;;;19.90;18.30;;;24.90;8.30;;;;;;4994710;28;20632;-66
2021/06/09 09:23:49;;;;;;;17.10;15.60;;;24.70;25.60;;;;;;4994729;28;20598;-66
2021/06/09 09:26:29;;;;;;;17.10;15.67;;;25.10;5.00;;;;;;4994484;28;20598;-66
2021/06/09 09:29:08;;;;;;;17.40;15.60;;;25.20;1.00;;;;;;4994610;28;20633;-66
2021/06/09 09:31:55;;;;;;;17.93;16.33;;;25.50;1.00;;;;;;4993803;28;20625;-66
2021/06/09 09:34:31;;;;;;;17.87;16.30;;;25.10;1.00;;;;;;4994644;28;20556;-66
2021/06/09 09:37:17;;;;;;;16.87;15.37;;;25.10;1.00;;;;;;4994824;28;21139;-66
2021/06/09 09:39:49;;;;;;;17.20;15.83;;;25.30;1.00;;;;;;4994443;28;20598;-66
2021/06/09 09:42:17;;;;;;;19.30;17.63;;;25.50;1.00;;;;;;4994942;28;21159;-66
2021/06/09 09:44:43;;;;;;;17.30;15.83;;;25.90;1.00;;;;;;4994283;28;20652;-66
2021/06/09 09:47:18;;;;;;;15.67;14.10;;;26.20;1.00;;;;;;4993054;28;20606;-67
2021/06/09 09:49:48;;;;;;;16.70;15.30;;;26.30;1.00;;;;;;4994139;28;21009;-66
2021/06/09 09:52:15;;;;;;;17.27;15.73;;;26.40;1.00;;;;;;4994137;28;20736;-66
2021/06/09 09:54:43;;;;;;;15.70;14.40;;;26.00;1.00;;;;;;4994391;28;21121;-66
2021/06/09 09:57:13;;;;;;;16.43;14.93;;;26.00;1.00;;;;;;4994003;28;20656;-66
2021/06/09 09:59:41;;;;;;;14.50;13.20;;;26.20;1.00;;;;;;4994125;28;21001;-67
2021/06/09 10:02:16;;;;;;;13.53;12.30;;;26.40;1.00;;;;;;4994334;28;20590;-66
2021/06/09 10:04:49;;;;;;;13.80;12.50;;;26.60;1.00;;;;;;4994783;28;20622;-66
2021/06/09 10:07:16;;;;;;;14.43;12.20;;;26.80;1.00;;;;;;4994244;28;21271;-66
2021/06/09 10:09:44;;;;;;;14.03;12.93;;;26.80;1.00;;;;;;4994613;28;20645;-66
2021/06/09 10:12:16;;;;;;;14.80;13.40;;;26.40;1.00;;;;;;4993959;28;20604;-66
2021/06/09 10:14:48;;;;;;;18.80;13.53;;;26.00;1.00;;;;;;4993957;28;20570;-66
2021/06/09 10:17:22;;;;;;;12.17;11.07;;;26.00;1.00;;;;;;4992845;28;20687;-66
2021/06/09 10:20:00;;;;;;;12.90;11.70;;;25.90;1.00;;;;;;4994097;28;20613;-66
2021/06/09 10:22:34;;;;;;;11.87;10.90;;;25.80;1.00;;;;;;4994214;28;20629;-66
2021/06/09 10:25:08;;;;;;;11.53;10.53;;;25.50;1.00;;;;;;4994220;28;20644;-66
2021/06/09 10:27:49;;;;;;;13.07;11.90;;;25.30;1.00;;;;;;4994467;28;20621;-67
2021/06/09 10:30:19;;;;;;;11.57;10.67;;;25.30;1.00;;;;;;4993538;28;20641;-66
2021/06/09 10:33:03;;;;;;;12.87;11.80;;;25.20;1.00;;;;;;4993914;28;20594;-66
2021/06/09 10:35:33;;;;;;;12.87;11.77;;;24.90;1.00;;;;;;4976764;28;20712;-66
2021/06/09 10:38:00;;;;;;;15.37;13.60;;;24.80;1.00;;;;;;4993888;28;20557;-66
2021/06/09 10:40:29;;;;;;;12.80;11.60;;;24.60;1.00;;;;;;4993505;28;20756;-66
2021/06/09 10:42:59;;;;;;;14.50;13.20;;;24.50;1.00;;;;;;4994171;28;20632;-66
2021/06/09 10:45:26;;;;;;;13.90;12.80;;;24.70;1.00;;;;;;4997501;28;20645;-66
2021/06/09 10:47:55;;;;;;;15.10;12.80;;;24.80;1.00;;;;;;4997920;28;21049;-66
2021/06/09 10:50:22;;;;;;;12.43;10.97;;;24.80;1.00;;;;;;4997447;28;20594;-66
2021/06/09 10:52:49;;;;;;;13.37;12.27;;;24.70;1.00;;;;;;4996891;28;20695;-66
2021/06/09 10:55:16;;;;;;;12.13;11.23;;;24.70;1.00;;;;;;4996844;28;20590;-67
2021/06/09 10:57:43;;;;;;;11.20;8.80;;;24.50;1.00;;;;;;4996511;28;20631;-66
2021/06/09 11:00:14;;;;;;;10.30;8.43;;;24.20;1.00;;;;;;4997038;28;20807;-66
2021/06/09 11:02:42;;;;;;;7.53;6.90;;;24.00;1.00;;;;;;4997262;28;20554;-66
2021/06/09 11:05:10;;;;;;;6.40;5.90;;;23.80;1.00;;;;;;4997015;28;20608;-66
2021/06/09 11:07:47;;;;;;;7.50;6.80;;;23.70;1.00;;;;;;4995779;28;20640;-66
2021/06/09 11:10:37;;;;;;;6.93;6.23;;;23.70;1.00;;;;;;4996987;28;20569;-66
2021/06/09 11:13:30;;;;;;;7.20;6.60;;;23.20;24.60;;;;;;4996775;28;20597;-66
2021/06/09 11:16:08;;;;;;;7.23;6.67;;;23.10;90.90;;;;;;4996917;28;21078;-66
2021/06/09 11:18:37;;;;;;;7.50;6.90;;;23.00;99.90;;;;;;4996880;28;20558;-66
2021/06/09 11:21:04;;;;;;;8.33;7.53;;;23.10;85.70;;;;;;4995430;28;20666;-66
2021/06/09 11:23:33;;;;;;;7.60;6.90;;;23.30;59.80;;;;;;4996897;28;20614;-65
2021/06/09 11:26:02;;;;;;;12.20;8.23;;;23.30;94.00;;;;;;4995410;28;20621;-67
2021/06/09 11:28:31;;;;;;;7.80;7.10;;;23.40;99.90;;;;;;4997143;28;20621;-66
2021/06/09 11:30:58;;;;;;;6.97;6.37;;;23.60;78.70;;;;;;4996873;28;20601;-66
2021/06/09 11:33:36;;;;;;;6.80;6.20;;;23.90;18.30;;;;;;4996818;28;21148;-66
2021/06/09 11:36:09;;;;;;;7.10;6.60;;;24.10;16.10;;;;;;4996873;28;20641;-66
2021/06/09 11:38:45;;;;;;;6.80;6.30;;;24.30;1.00;;;;;;4996864;28;20563;-66
2021/06/09 11:41:27;;;;;;;7.07;6.47;;;24.40;3.70;;;;;;4995200;28;20680;-67
2021/06/09 11:43:56;;;;;;;6.37;5.93;;;24.20;1.00;;;;;;4996121;28;20799;-66
2021/06/09 11:46:25;;;;;;;6.97;6.47;;;24.10;24.00;;;;;;4996317;28;20613;-67
2021/06/09 11:49:07;;;;;;;7.40;6.90;;;24.10;27.30;;;;;;4996450;28;20598;-66
2021/06/09 11:51:38;;;;;;;7.30;6.60;;;24.20;1.00;;;;;;4996131;28;20625;-66
2021/06/09 11:54:18;;;;;;;8.37;7.70;;;24.60;1.00;;;;;;4995523;28;21109;-66
2021/06/09 11:56:47;;;;;;;9.20;8.43;;;25.10;1.00;;;;;;4996210;28;21147;-66
2021/06/09 11:59:22;;;;;;;10.53;9.53;;;25.90;1.00;;;;;;4995873;28;20622;-66
2021/06/09 12:01:50;;;;;;;9.13;8.23;;;27.10;1.00;;;;;;4995758;28;20623;-67
2021/06/09 12:04:26;;;;;;;11.07;9.87;;;27.90;1.00;;;;;;4995841;28;20946;-67
2021/06/09 12:06:57;;;;;;;10.60;9.53;;;28.60;99.90;;;;;;4996065;28;20617;-67
2021/06/09 12:09:25;;;;;;;9.77;8.97;;;29.00;99.90;;;;;;4995479;28;20622;-66
2021/06/09 12:11:56;;;;;;;10.80;9.80;;;29.50;99.90;;;;;;4995780;28;20648;-66
2021/06/09 12:14:44;;;;;;;10.90;10.07;;;29.60;99.90;;;;;;4995585;28;21163;-67
2021/06/09 12:17:10;;;;;;;9.70;8.90;;;29.70;99.90;;;;;;4995693;28;20661;-66
2021/06/09 12:19:37;;;;;;;10.53;9.60;;;29.70;99.90;;;;;;4995875;28;20639;-66
2021/06/09 12:22:12;;;;;;;11.63;10.83;;;29.80;99.90;;;;;;4995513;28;20601;-66
2021/06/09 12:24:40;;;;;;;11.20;10.23;;;28.60;99.90;;;;;;4995902;28;20570;-66
2021/06/09 12:27:11;;;;;;;10.87;9.77;;;28.70;99.90;;;;;;4995708;28;20625;-66
2021/06/09 12:29:41;;;;;;;12.67;10.10;;;29.50;99.90;;;;;;4995651;28;20602;-69
2021/06/09 12:32:24;;;;;;;11.10;10.20;;;29.90;99.90;;;;;;4995495;28;21182;-66
2021/06/09 12:34:53;;;;;;;9.83;8.97;;;31.10;99.90;;;;;;4995815;28;20605;-67
2021/06/09 12:37:20;;;;;;;10.90;10.17;;;30.40;99.90;;;;;;4995515;28;20608;-66
2021/06/09 12:39:57;;;;;;;11.30;10.50;;;30.30;99.90;;;;;;4995051;28;20715;-66
2021/06/09 12:42:24;;;;;;;10.90;9.90;;;30.20;99.90;;;;;;4994919;28;21195;-67
2021/06/09 12:44:51;;;;;;;9.30;8.60;;;30.50;99.90;;;;;;4995014;28;21215;-67
2021/06/09 12:47:32;;;;;;;11.00;9.87;;;31.70;99.90;;;;;;4995578;28;20601;-67